sensor_id;sensor_type;location;lat;lon;timestamp;pressure;altitude;pressure_sealevel;temperature
82297;BMP280;71899;51.992;8.648;2024-01-15T00:00:13;98588.31;;;1.19
82297;BMP280;71899;51.992;8.648;2024-01-15T00:02:39;98590.66;;;1.24
82297;BMP280;71899;51.992;8.648;2024-01-15T00:05:04;98567.28;;;1.28
82297;BMP280;71899;51.992;8.648;2024-01-15T00:07:29;98561.13;;;1.31
82297;BMP280;71899;51.992;8.648;2024-01-15T00:09:55;98559.97;;;1.36
82297;BMP280;71899;51.992;8.648;2024-01-15T00:12:20;98552.38;;;1.18
82297;BMP280;71899;51.992;8.648;2024-01-15T00:14:45;98562.34;;;1.24
82297;BMP280;71899;51.992;8.648;2024-01-15T00:17:11;98552.13;;;1.22
82297;BMP280;71899;51.992;8.648;2024-01-15T00:19:36;98555.47;;;1.24
82297;BMP280;71899;51.992;8.648;2024-01-15T00:22:01;98545.00;;;1.27
82297;BMP280;71899;51.992;8.648;2024-01-15T00:24:27;98540.53;;;1.31
82297;BMP280;71899;51.992;8.648;2024-01-15T00:26:52;98540.31;;;1.18
82297;BMP280;71899;51.992;8.648;2024-01-15T00:29:18;98550.31;;;1.24
82297;BMP280;71899;51.992;8.648;2024-01-15T00:31:44;98548.59;;;1.25
82297;BMP280;71899;51.992;8.648;2024-01-15T00:34:09;98555.53;;;1.23
82297;BMP280;71899;51.992;8.648;2024-01-15T00:36:35;98565.66;;;1.26
82297;BMP280;71899;51.992;8.648;2024-01-15T00:39:00;98563.56;;;1.17
82297;BMP280;71899;51.992;8.648;2024-01-15T00:41:26;98558.44;;;1.17
82297;BMP280;71899;51.992;8.648;2024-01-15T00:43:52;98548.81;;;1.20
82297;BMP280;71899;51.992;8.648;2024-01-15T00:46:18;98537.84;;;1.17
82297;BMP280;71899;51.992;8.648;2024-01-15T00:48:43;98541.31;;;1.16
82297;BMP280;71899;51.992;8.648;2024-01-15T00:51:09;98540.94;;;1.23
82297;BMP280;71899;51.992;8.648;2024-01-15T00:53:34;98547.75;;;1.24
82297;BMP280;71899;51.992;8.648;2024-01-15T00:55:59;98535.03;;;1.21
82297;BMP280;71899;51.992;8.648;2024-01-15T00:58:26;98545.84;;;1.28
82297;BMP280;71899;51.992;8.648;2024-01-15T01:00:51;98547.59;;;1.27
82297;BMP280;71899;51.992;8.648;2024-01-15T01:03:17;98549.50;;;1.39
82297;BMP280;71899;51.992;8.648;2024-01-15T01:05:42;98547.25;;;1.33
82297;BMP280;71899;51.992;8.648;2024-01-15T01:08:08;98542.63;;;1.40
82297;BMP280;71899;51.992;8.648;2024-01-15T01:10:33;98538.03;;;1.29
82297;BMP280;71899;51.992;8.648;2024-01-15T01:12:58;98543.13;;;1.31
82297;BMP280;71899;51.992;8.648;2024-01-15T01:15:24;98539.53;;;1.33
82297;BMP280;71899;51.992;8.648;2024-01-15T01:17:49;98535.84;;;1.22
82297;BMP280;71899;51.992;8.648;2024-01-15T01:20:15;98531.09;;;1.31
82297;BMP280;71899;51.992;8.648;2024-01-15T01:22:41;98530.63;;;1.23
82297;BMP280;71899;51.992;8.648;2024-01-15T01:25:06;98539.19;;;1.24
82297;BMP280;71899;51.992;8.648;2024-01-15T01:27:32;98541.84;;;1.22
82297;BMP280;71899;51.992;8.648;2024-01-15T01:29:57;98535.78;;;1.23
82297;BMP280;71899;51.992;8.648;2024-01-15T01:32:23;98531.25;;;1.28
82297;BMP280;71899;51.992;8.648;2024-01-15T01:34:48;98535.03;;;1.21
82297;BMP280;71899;51.992;8.648;2024-01-15T01:37:14;98523.03;;;1.37
82297;BMP280;71899;51.992;8.648;2024-01-15T01:39:40;98530.41;;;1.28
82297;BMP280;71899;51.992;8.648;2024-01-15T01:42:05;98511.47;;;1.29
82297;BMP280;71899;51.992;8.648;2024-01-15T01:44:31;98513.06;;;1.31
82297;BMP280;71899;51.992;8.648;2024-01-15T01:46:57;98516.53;;;1.30
82297;BMP280;71899;51.992;8.648;2024-01-15T01:49:24;98517.09;;;1.20
82297;BMP280;71899;51.992;8.648;2024-01-15T01:51:50;98535.19;;;1.18
82297;BMP280;71899;51.992;8.648;2024-01-15T01:54:16;98509.53;;;1.17
82297;BMP280;71899;51.992;8.648;2024-01-15T01:56:41;98498.34;;;1.18
82297;BMP280;71899;51.992;8.648;2024-01-15T01:59:09;98502.50;;;1.20
82297;BMP280;71899;51.992;8.648;2024-01-15T02:01:35;98500.66;;;1.22
82297;BMP280;71899;51.992;8.648;2024-01-15T02:04:00;98514.19;;;1.26
82297;BMP280;71899;51.992;8.648;2024-01-15T02:06:26;98511.56;;;1.27
82297;BMP280;71899;51.992;8.648;2024-01-15T02:08:52;98510.00;;;1.25
82297;BMP280;71899;51.992;8.648;2024-01-15T02:11:17;98500.03;;;1.34
82297;BMP280;71899;51.992;8.648;2024-01-15T02:13:43;98497.78;;;1.28
82297;BMP280;71899;51.992;8.648;2024-01-15T02:16:08;98498.59;;;1.29
82297;BMP280;71899;51.992;8.648;2024-01-15T02:18:43;98488.13;;;1.16
82297;BMP280;71899;51.992;8.648;2024-01-15T02:21:09;98507.88;;;1.16
82297;BMP280;71899;51.992;8.648;2024-01-15T02:23:36;98506.06;;;1.18
82297;BMP280;71899;51.992;8.648;2024-01-15T02:26:02;98505.81;;;1.22
82297;BMP280;71899;51.992;8.648;2024-01-15T02:28:28;98508.38;;;1.22
82297;BMP280;71899;51.992;8.648;2024-01-15T02:30:54;98505.63;;;1.25
82297;BMP280;71899;51.992;8.648;2024-01-15T02:33:19;98510.94;;;1.22
82297;BMP280;71899;51.992;8.648;2024-01-15T02:35:44;98500.66;;;1.22
82297;BMP280;71899;51.992;8.648;2024-01-15T02:38:11;98512.22;;;1.31
82297;BMP280;71899;51.992;8.648;2024-01-15T02:40:39;98512.91;;;1.34
82297;BMP280;71899;51.992;8.648;2024-01-15T02:43:04;98505.56;;;1.27
82297;BMP280;71899;51.992;8.648;2024-01-15T02:45:30;98508.09;;;1.28
82297;BMP280;71899;51.992;8.648;2024-01-15T02:47:55;98510.72;;;1.27
82297;BMP280;71899;51.992;8.648;2024-01-15T02:50:20;98508.88;;;1.29
82297;BMP280;71899;51.992;8.648;2024-01-15T02:52:46;98519.72;;;1.35
82297;BMP280;71899;51.992;8.648;2024-01-15T02:55:11;98515.69;;;1.30
82297;BMP280;71899;51.992;8.648;2024-01-15T02:57:36;98511.56;;;1.27
82297;BMP280;71899;51.992;8.648;2024-01-15T03:00:02;98507.41;;;1.25
82297;BMP280;71899;51.992;8.648;2024-01-15T03:02:28;98508.09;;;1.28
82297;BMP280;71899;51.992;8.648;2024-01-15T03:04:54;98507.16;;;1.29
82297;BMP280;71899;51.992;8.648;2024-01-15T03:07:19;98512.41;;;1.43
82297;BMP280;71899;51.992;8.648;2024-01-15T03:09:44;98502.03;;;1.45
82297;BMP280;71899;51.992;8.648;2024-01-15T03:12:10;98500.47;;;1.42
82297;BMP280;71899;51.992;8.648;2024-01-15T03:14:36;98503.72;;;1.46
82297;BMP280;71899;51.992;8.648;2024-01-15T03:17:01;98502.09;;;1.43
82297;BMP280;71899;51.992;8.648;2024-01-15T03:19:27;98505.44;;;1.45
82297;BMP280;71899;51.992;8.648;2024-01-15T03:21:52;98496.56;;;1.51
82297;BMP280;71899;51.992;8.648;2024-01-15T03:24:17;98508.41;;;1.38
82297;BMP280;71899;51.992;8.648;2024-01-15T03:26:43;98508.59;;;1.35
82297;BMP280;71899;51.992;8.648;2024-01-15T03:29:08;98494.81;;;1.52
82297;BMP280;71899;51.992;8.648;2024-01-15T03:31:33;98499.69;;;1.40
82297;BMP280;71899;51.992;8.648;2024-01-15T03:33:58;98489.41;;;1.40
82297;BMP280;71899;51.992;8.648;2024-01-15T03:36:24;98494.78;;;1.36
82297;BMP280;71899;51.992;8.648;2024-01-15T03:38:49;98493.66;;;1.41
82297;BMP280;71899;51.992;8.648;2024-01-15T03:41:14;98487.06;;;1.36
82297;BMP280;71899;51.992;8.648;2024-01-15T03:43:40;98489.56;;;1.37
82297;BMP280;71899;51.992;8.648;2024-01-15T03:46:05;98484.47;;;1.20
82297;BMP280;71899;51.992;8.648;2024-01-15T03:48:31;98497.13;;;1.25
82297;BMP280;71899;51.992;8.648;2024-01-15T03:50:57;98492.09;;;1.22
82297;BMP280;71899;51.992;8.648;2024-01-15T03:53:22;98482.25;;;1.30
82297;BMP280;71899;51.992;8.648;2024-01-15T03:55:49;98485.81;;;1.27
82297;BMP280;71899;51.992;8.648;2024-01-15T03:58:14;98489.63;;;1.20
82297;BMP280;71899;51.992;8.648;2024-01-15T04:00:40;98491.72;;;1.29
82297;BMP280;71899;51.992;8.648;2024-01-15T04:03:05;98498.28;;;1.35
82297;BMP280;71899;51.992;8.648;2024-01-15T04:05:31;98493.72;;;1.24
82297;BMP280;71899;51.992;8.648;2024-01-15T04:07:56;98508.75;;;1.32
82297;BMP280;71899;51.992;8.648;2024-01-15T04:10:21;98506.19;;;1.32
82297;BMP280;71899;51.992;8.648;2024-01-15T04:12:47;98497.63;;;1.31
82297;BMP280;71899;51.992;8.648;2024-01-15T04:15:12;98490.41;;;1.38
82297;BMP280;71899;51.992;8.648;2024-01-15T04:17:38;98488.97;;;1.32
82297;BMP280;71899;51.992;8.648;2024-01-15T04:20:04;98498.28;;;1.35
82297;BMP280;71899;51.992;8.648;2024-01-15T04:22:29;98491.47;;;1.34
82297;BMP280;71899;51.992;8.648;2024-01-15T04:24:54;98478.09;;;1.43
82297;BMP280;71899;51.992;8.648;2024-01-15T04:27:20;98485.25;;;1.38
82297;BMP280;71899;51.992;8.648;2024-01-15T04:29:45;98483.69;;;1.35
82297;BMP280;71899;51.992;8.648;2024-01-15T04:32:10;98487.34;;;1.31
82297;BMP280;71899;51.992;8.648;2024-01-15T04:34:36;98495.34;;;1.25
82297;BMP280;71899;51.992;8.648;2024-01-15T04:37:01;98483.75;;;1.34
82297;BMP280;71899;51.992;8.648;2024-01-15T04:39:27;98481.09;;;1.35
82297;BMP280;71899;51.992;8.648;2024-01-15T04:41:52;98478.09;;;1.43
82297;BMP280;71899;51.992;8.648;2024-01-15T04:44:18;98475.69;;;1.40
82297;BMP280;71899;51.992;8.648;2024-01-15T04:46:43;98479.44;;;1.34
82297;BMP280;71899;51.992;8.648;2024-01-15T04:49:09;98469.81;;;1.38
82297;BMP280;71899;51.992;8.648;2024-01-15T04:51:34;98468.63;;;1.43
82297;BMP280;71899;51.992;8.648;2024-01-15T04:54:00;98456.19;;;1.36
82297;BMP280;71899;51.992;8.648;2024-01-15T04:56:25;98469.66;;;1.41
82297;BMP280;71899;51.992;8.648;2024-01-15T04:58:51;98469.72;;;1.39
82297;BMP280;71899;51.992;8.648;2024-01-15T05:01:16;98452.38;;;1.27
82297;BMP280;71899;51.992;8.648;2024-01-15T05:03:42;98459.19;;;1.28
82297;BMP280;71899;51.992;8.648;2024-01-15T05:06:07;98457.00;;;1.36
82297;BMP280;71899;51.992;8.648;2024-01-15T05:08:33;98453.78;;;1.33
82297;BMP280;71899;51.992;8.648;2024-01-15T05:10:58;98445.47;;;1.28
82297;BMP280;71899;51.992;8.648;2024-01-15T05:13:23;98437.34;;;1.35
82297;BMP280;71899;51.992;8.648;2024-01-15T05:15:49;98445.72;;;1.23
82297;BMP280;71899;51.992;8.648;2024-01-15T05:18:14;98449.19;;;1.22
82297;BMP280;71899;51.992;8.648;2024-01-15T05:20:39;98441.47;;;1.22
82297;BMP280;71899;51.992;8.648;2024-01-15T05:23:05;98443.88;;;1.25
82297;BMP280;71899;51.992;8.648;2024-01-15T05:25:30;98450.88;;;1.23
82297;BMP280;71899;51.992;8.648;2024-01-15T05:27:55;98458.53;;;1.25
82297;BMP280;71899;51.992;8.648;2024-01-15T05:30:21;98451.38;;;1.30
82297;BMP280;71899;51.992;8.648;2024-01-15T05:32:46;98449.75;;;1.12
82297;BMP280;71899;51.992;8.648;2024-01-15T05:35:11;98448.75;;;1.14
82297;BMP280;71899;51.992;8.648;2024-01-15T05:37:41;98448.53;;;1.19
82297;BMP280;71899;51.992;8.648;2024-01-15T05:40:06;98463.97;;;1.19
82297;BMP280;71899;51.992;8.648;2024-01-15T05:42:32;98462.47;;;1.15
82297;BMP280;71899;51.992;8.648;2024-01-15T05:44:57;98456.06;;;1.22
82297;BMP280;71899;51.992;8.648;2024-01-15T05:47:24;98456.84;;;1.24
82297;BMP280;71899;51.992;8.648;2024-01-15T05:49:49;98456.00;;;1.23
82297;BMP280;71899;51.992;8.648;2024-01-15T05:52:15;98455.44;;;1.34
82297;BMP280;71899;51.992;8.648;2024-01-15T05:54:40;98446.44;;;1.25
82297;BMP280;71899;51.992;8.648;2024-01-15T05:57:06;98446.38;;;1.27
82297;BMP280;71899;51.992;8.648;2024-01-15T05:59:31;98443.81;;;1.27
82297;BMP280;71899;51.992;8.648;2024-01-15T06:01:59;98443.31;;;1.36
82297;BMP280;71899;51.992;8.648;2024-01-15T06:04:24;98438.84;;;1.24
82297;BMP280;71899;51.992;8.648;2024-01-15T06:06:49;98435.59;;;1.20
82297;BMP280;71899;51.992;8.648;2024-01-15T06:09:15;98447.28;;;1.26
82297;BMP280;71899;51.992;8.648;2024-01-15T06:11:40;98443.81;;;1.27
82297;BMP280;71899;51.992;8.648;2024-01-15T06:14:05;98442.13;;;1.26
82297;BMP280;71899;51.992;8.648;2024-01-15T06:16:31;98452.69;;;1.21
82297;BMP280;71899;51.992;8.648;2024-01-15T06:18:56;98449.34;;;1.19
82297;BMP280;71899;51.992;8.648;2024-01-15T06:21:21;98436.91;;;1.12
82297;BMP280;71899;51.992;8.648;2024-01-15T06:23:47;98442.72;;;1.15
82297;BMP280;71899;51.992;8.648;2024-01-15T06:26:12;98442.53;;;1.18
82297;BMP280;71899;51.992;8.648;2024-01-15T06:28:37;98456.06;;;1.22
82297;BMP280;71899;51.992;8.648;2024-01-15T06:31:03;98447.88;;;1.31
82297;BMP280;71899;51.992;8.648;2024-01-15T06:33:28;98461.81;;;1.27
82297;BMP280;71899;51.992;8.648;2024-01-15T06:35:54;98447.63;;;1.20
82297;BMP280;71899;51.992;8.648;2024-01-15T06:38:19;98451.19;;;1.33
82297;BMP280;71899;51.992;8.648;2024-01-15T06:40:44;98451.94;;;1.50
82297;BMP280;71899;51.992;8.648;2024-01-15T06:43:11;98448.47;;;1.36
82297;BMP280;71899;51.992;8.648;2024-01-15T06:45:36;98448.63;;;1.33
82297;BMP280;71899;51.992;8.648;2024-01-15T06:48:01;98460.31;;;1.23
82297;BMP280;71899;51.992;8.648;2024-01-15T06:50:27;98456.25;;;1.19
82297;BMP280;71899;51.992;8.648;2024-01-15T06:52:52;98450.78;;;1.25
82297;BMP280;71899;51.992;8.648;2024-01-15T06:55:17;98452.28;;;1.29
82297;BMP280;71899;51.992;8.648;2024-01-15T06:57:43;98445.78;;;1.22
82297;BMP280;71899;51.992;8.648;2024-01-15T07:00:08;98439.97;;;1.18
82297;BMP280;71899;51.992;8.648;2024-01-15T07:02:34;98446.56;;;1.24
82297;BMP280;71899;51.992;8.648;2024-01-15T07:04:59;98458.81;;;1.19
82297;BMP280;71899;51.992;8.648;2024-01-15T07:07:25;98457.19;;;1.18
82297;BMP280;71899;51.992;8.648;2024-01-15T07:09:54;98452.50;;;1.09
82297;BMP280;71899;51.992;8.648;2024-01-15T07:12:19;98458.13;;;0.99
82297;BMP280;71899;51.992;8.648;2024-01-15T07:14:44;98462.06;;;1.07
82297;BMP280;71899;51.992;8.648;2024-01-15T07:17:10;98456.38;;;1.00
82297;BMP280;71899;51.992;8.648;2024-01-15T07:19:35;98460.94;;;1.11
82297;BMP280;71899;51.992;8.648;2024-01-15T07:22:00;98445.50;;;1.11
82297;BMP280;71899;51.992;8.648;2024-01-15T07:24:26;98458.38;;;1.11
82297;BMP280;71899;51.992;8.648;2024-01-15T07:26:51;98460.72;;;1.15
82297;BMP280;71899;51.992;8.648;2024-01-15T07:29:16;98461.38;;;1.19
82297;BMP280;71899;51.992;8.648;2024-01-15T07:31:48;98454.66;;;1.16
82297;BMP280;71899;51.992;8.648;2024-01-15T07:34:13;98461.28;;;1.05
82297;BMP280;71899;51.992;8.648;2024-01-15T07:36:39;98456.81;;;1.08
82297;BMP280;71899;51.992;8.648;2024-01-15T07:39:04;98457.47;;;1.12
82297;BMP280;71899;51.992;8.648;2024-01-15T07:41:29;98458.31;;;1.12
82297;BMP280;71899;51.992;8.648;2024-01-15T07:43:58;98451.66;;;1.08
82297;BMP280;71899;51.992;8.648;2024-01-15T07:46:24;98438.97;;;1.05
82297;BMP280;71899;51.992;8.648;2024-01-15T07:48:53;98454.06;;;1.11
82297;BMP280;71899;51.992;8.648;2024-01-15T07:51:24;98445.34;;;0.98
82297;BMP280;71899;51.992;8.648;2024-01-15T07:53:53;98439.19;;;1.00
82297;BMP280;71899;51.992;8.648;2024-01-15T07:56:23;98462.50;;;0.97
82297;BMP280;71899;51.992;8.648;2024-01-15T07:58:52;98449.47;;;1.00
82297;BMP280;71899;51.992;8.648;2024-01-15T08:01:20;98460.78;;;0.98
82297;BMP280;71899;51.992;8.648;2024-01-15T08:03:59;98474.63;;;1.28
82297;BMP280;71899;51.992;8.648;2024-01-15T08:06:30;98473.03;;;1.26
82297;BMP280;71899;51.992;8.648;2024-01-15T08:08:56;98454.91;;;1.12
82297;BMP280;71899;51.992;8.648;2024-01-15T08:11:24;98455.66;;;1.14
82297;BMP280;71899;51.992;8.648;2024-01-15T08:13:55;98468.66;;;1.28
82297;BMP280;71899;51.992;8.648;2024-01-15T08:16:23;98470.38;;;1.27
82297;BMP280;71899;51.992;8.648;2024-01-15T08:18:51;98487.41;;;1.30
82297;BMP280;71899;51.992;8.648;2024-01-15T08:21:16;98465.03;;;1.15
82297;BMP280;71899;51.992;8.648;2024-01-15T08:23:53;98486.09;;;1.38
82297;BMP280;71899;51.992;8.648;2024-01-15T08:26:30;98459.97;;;1.13
82297;BMP280;71899;51.992;8.648;2024-01-15T08:28:59;98478.09;;;1.27
82297;BMP280;71899;51.992;8.648;2024-01-15T08:31:24;98463.28;;;1.15
82297;BMP280;71899;51.992;8.648;2024-01-15T08:33:50;98480.50;;;1.30
82297;BMP280;71899;51.992;8.648;2024-01-15T08:36:25;98462.00;;;1.24
82297;BMP280;71899;51.992;8.648;2024-01-15T08:38:52;98453.00;;;1.15
82297;BMP280;71899;51.992;8.648;2024-01-15T08:41:25;98464.63;;;1.07
82297;BMP280;71899;51.992;8.648;2024-01-15T08:44:07;98463.13;;;1.18
82297;BMP280;71899;51.992;8.648;2024-01-15T08:46:32;98461.94;;;1.08
82297;BMP280;71899;51.992;8.648;2024-01-15T08:49:03;98465.19;;;1.12
82297;BMP280;71899;51.992;8.648;2024-01-15T08:51:32;98469.03;;;1.20
82297;BMP280;71899;51.992;8.648;2024-01-15T08:54:03;98455.41;;;1.18
82297;BMP280;71899;51.992;8.648;2024-01-15T08:56:36;98445.66;;;1.25
82297;BMP280;71899;51.992;8.648;2024-01-15T09:01:50;98470.72;;;1.37
82297;BMP280;71899;51.992;8.648;2024-01-15T09:04:26;98457.41;;;1.13
82297;BMP280;71899;51.992;8.648;2024-01-15T09:06:56;98463.56;;;1.26
82297;BMP280;71899;51.992;8.648;2024-01-15T09:09:30;98463.91;;;1.36
82297;BMP280;71899;51.992;8.648;2024-01-15T09:11:59;98453.47;;;1.39
82297;BMP280;71899;51.992;8.648;2024-01-15T09:14:25;98452.69;;;1.21
82297;BMP280;71899;51.992;8.648;2024-01-15T09:16:54;98463.00;;;1.21
82297;BMP280;71899;51.992;8.648;2024-01-15T09:19:34;98457.59;;;1.26
82297;BMP280;71899;51.992;8.648;2024-01-15T09:22:03;98456.41;;;1.16
82297;BMP280;71899;51.992;8.648;2024-01-15T09:24:29;98465.03;;;1.15
82297;BMP280;71899;51.992;8.648;2024-01-15T09:26:55;98473.63;;;1.31
82297;BMP280;71899;51.992;8.648;2024-01-15T09:29:21;98467.09;;;1.08
82297;BMP280;71899;51.992;8.648;2024-01-15T09:31:51;98455.13;;;1.07
82297;BMP280;71899;51.992;8.648;2024-01-15T09:34:20;98459.59;;;1.04
82297;BMP280;71899;51.992;8.648;2024-01-15T09:37:01;98463.47;;;1.12
82297;BMP280;71899;51.992;8.648;2024-01-15T09:39:35;98473.84;;;1.26
82297;BMP280;71899;51.992;8.648;2024-01-15T09:42:08;98472.06;;;1.28
82297;BMP280;71899;51.992;8.648;2024-01-15T09:44:40;98473.69;;;1.29
82297;BMP280;71899;51.992;8.648;2024-01-15T09:47:07;98459.97;;;1.13
82297;BMP280;71899;51.992;8.648;2024-01-15T09:49:42;98465.88;;;1.15
82297;BMP280;71899;51.992;8.648;2024-01-15T09:52:11;98476.94;;;1.17
82297;BMP280;71899;51.992;8.648;2024-01-15T09:54:43;98477.50;;;1.22
82297;BMP280;71899;51.992;8.648;2024-01-15T09:57:14;98468.31;;;1.34
82297;BMP280;71899;51.992;8.648;2024-01-15T09:59:43;98478.66;;;1.32
82297;BMP280;71899;51.992;8.648;2024-01-15T10:02:13;98467.22;;;1.22
82297;BMP280;71899;51.992;8.648;2024-01-15T10:07:56;98464.97;;;1.16
82297;BMP280;71899;51.992;8.648;2024-01-15T10:10:27;98454.16;;;1.25
82297;BMP280;71899;51.992;8.648;2024-01-15T10:13:03;98460.00;;;1.44
82297;BMP280;71899;51.992;8.648;2024-01-15T10:15:29;98448.03;;;1.43
82297;BMP280;71899;51.992;8.648;2024-01-15T10:18:00;98444.81;;;1.56
82297;BMP280;71899;51.992;8.648;2024-01-15T10:20:27;98456.44;;;1.47
82297;BMP280;71899;51.992;8.648;2024-01-15T10:22:59;98448.06;;;1.59
82297;BMP280;71899;51.992;8.648;2024-01-15T10:25:27;98452.94;;;1.79
82297;BMP280;71899;51.992;8.648;2024-01-15T10:28:03;98447.25;;;1.74
82297;BMP280;71899;51.992;8.648;2024-01-15T10:30:34;98439.41;;;1.76
82297;BMP280;71899;51.992;8.648;2024-01-15T10:33:03;98441.00;;;1.47
82297;BMP280;71899;51.992;8.648;2024-01-15T10:35:35;98456.88;;;1.55
82297;BMP280;71899;51.992;8.648;2024-01-15T10:38:10;98456.53;;;1.61
82297;BMP280;71899;51.992;8.648;2024-01-15T10:40:35;98448.66;;;1.48
82297;BMP280;71899;51.992;8.648;2024-01-15T10:43:02;98441.75;;;1.49
82297;BMP280;71899;51.992;8.648;2024-01-15T10:45:33;98464.00;;;1.50
82297;BMP280;71899;51.992;8.648;2024-01-15T10:47:59;98444.66;;;1.74
82297;BMP280;71899;51.992;8.648;2024-01-15T10:50:31;98437.97;;;1.86
82297;BMP280;71899;51.992;8.648;2024-01-15T10:53:00;98435.03;;;1.78
82297;BMP280;71899;51.992;8.648;2024-01-15T10:55:36;98438.56;;;1.75
82297;BMP280;71899;51.992;8.648;2024-01-15T10:58:09;98431.38;;;1.82
82297;BMP280;71899;51.992;8.648;2024-01-15T11:00:41;98420.53;;;1.75
82297;BMP280;71899;51.992;8.648;2024-01-15T11:03:10;98414.00;;;1.70
82297;BMP280;71899;51.992;8.648;2024-01-15T11:05:53;98434.16;;;1.93
82297;BMP280;71899;51.992;8.648;2024-01-15T11:08:18;98419.53;;;1.93
82297;BMP280;71899;51.992;8.648;2024-01-15T11:10:50;98425.50;;;2.10
82297;BMP280;71899;51.992;8.648;2024-01-15T11:18:32;98439.53;;;2.04
82297;BMP280;71899;51.992;8.648;2024-01-15T11:23:56;98435.56;;;1.98
82297;BMP280;71899;51.992;8.648;2024-01-15T11:26:29;98450.84;;;2.02
82297;BMP280;71899;51.992;8.648;2024-01-15T11:28:59;98457.44;;;2.21
82297;BMP280;71899;51.992;8.648;2024-01-15T11:34:05;98434.19;;;2.07
82297;BMP280;71899;51.992;8.648;2024-01-15T11:42:03;98431.66;;;1.91
82297;BMP280;71899;51.992;8.648;2024-01-15T11:44:32;98424.13;;;1.88
82297;BMP280;71899;51.992;8.648;2024-01-15T11:47:07;98428.50;;;1.86
82297;BMP280;71899;51.992;8.648;2024-01-15T11:52:20;98414.69;;;2.03
82297;BMP280;71899;51.992;8.648;2024-01-15T11:55:05;98444.06;;;2.15
82297;BMP280;71899;51.992;8.648;2024-01-15T11:57:51;98441.06;;;2.52
82297;BMP280;71899;51.992;8.648;2024-01-15T12:00:22;98418.63;;;1.94
82297;BMP280;71899;51.992;8.648;2024-01-15T12:02:51;98419.88;;;1.87
82297;BMP280;71899;51.992;8.648;2024-01-15T12:05:22;98425.19;;;1.84
82297;BMP280;71899;51.992;8.648;2024-01-15T12:07:49;98440.63;;;2.00
82297;BMP280;71899;51.992;8.648;2024-01-15T12:10:19;98424.50;;;1.96
82297;BMP280;71899;51.992;8.648;2024-01-15T12:15:35;98438.03;;;2.00
82297;BMP280;71899;51.992;8.648;2024-01-15T12:18:04;98437.44;;;2.11
82297;BMP280;71899;51.992;8.648;2024-01-15T12:20:34;98413.41;;;1.80
82297;BMP280;71899;51.992;8.648;2024-01-15T12:23:03;98419.03;;;2.03
82297;BMP280;71899;51.992;8.648;2024-01-15T12:25:30;98438.03;;;2.00
82297;BMP280;71899;51.992;8.648;2024-01-15T12:28:01;98419.22;;;1.68
82297;BMP280;71899;51.992;8.648;2024-01-15T12:30:33;98412.50;;;1.66
82297;BMP280;71899;51.992;8.648;2024-01-15T12:33:06;98445.88;;;1.83
82297;BMP280;71899;51.992;8.648;2024-01-15T12:35:33;98451.78;;;1.85
82297;BMP280;71899;51.992;8.648;2024-01-15T12:38:05;98424.59;;;1.95
82297;BMP280;71899;51.992;8.648;2024-01-15T12:40:32;98409.03;;;1.67
82297;BMP280;71899;51.992;8.648;2024-01-15T12:43:01;98430.00;;;1.90
82297;BMP280;71899;51.992;8.648;2024-01-15T12:45:26;98426.28;;;1.96
82297;BMP280;71899;51.992;8.648;2024-01-15T12:47:52;98435.44;;;2.16
82297;BMP280;71899;51.992;8.648;2024-01-15T12:50:18;98426.53;;;1.91
82297;BMP280;71899;51.992;8.648;2024-01-15T12:52:47;98430.25;;;2.02
82297;BMP280;71899;51.992;8.648;2024-01-15T12:55:15;98427.22;;;2.09
82297;BMP280;71899;51.992;8.648;2024-01-15T12:57:42;98431.63;;;2.07
82297;BMP280;71899;51.992;8.648;2024-01-15T13:00:07;98415.31;;;1.92
82297;BMP280;71899;51.992;8.648;2024-01-15T13:02:40;98431.94;;;2.17
82297;BMP280;71899;51.992;8.648;2024-01-15T13:05:08;98406.63;;;2.09
82297;BMP280;71899;51.992;8.648;2024-01-15T13:07:34;98417.41;;;2.45
82297;BMP280;71899;51.992;8.648;2024-01-15T13:10:03;98429.84;;;2.23
82297;BMP280;71899;51.992;8.648;2024-01-15T13:12:28;98443.94;;;2.02
82297;BMP280;71899;51.992;8.648;2024-01-15T13:14:54;98423.09;;;2.07
82297;BMP280;71899;51.992;8.648;2024-01-15T13:17:20;98405.44;;;2.15
82297;BMP280;71899;51.992;8.648;2024-01-15T13:19:50;98415.41;;;2.21
82297;BMP280;71899;51.992;8.648;2024-01-15T13:22:16;98422.09;;;2.39
82297;BMP280;71899;51.992;8.648;2024-01-15T13:24:41;98419.09;;;2.01
82297;BMP280;71899;51.992;8.648;2024-01-15T13:27:13;98402.91;;;1.99
82297;BMP280;71899;51.992;8.648;2024-01-15T13:29:39;98428.91;;;2.10
82297;BMP280;71899;51.992;8.648;2024-01-15T13:32:04;98420.59;;;2.05
82297;BMP280;71899;51.992;8.648;2024-01-15T13:34:32;98430.19;;;1.87
82297;BMP280;71899;51.992;8.648;2024-01-15T13:36:58;98414.13;;;1.82
82297;BMP280;71899;51.992;8.648;2024-01-15T13:39:23;98416.09;;;1.93
82297;BMP280;71899;51.992;8.648;2024-01-15T13:41:49;98427.28;;;2.23
82297;BMP280;71899;51.992;8.648;2024-01-15T13:44:18;98420.59;;;1.89
82297;BMP280;71899;51.992;8.648;2024-01-15T13:46:43;98444.44;;;1.93
82297;BMP280;71899;51.992;8.648;2024-01-15T13:49:09;98429.41;;;2.01
82297;BMP280;71899;51.992;8.648;2024-01-15T13:51:35;98414.84;;;2.00
82297;BMP280;71899;51.992;8.648;2024-01-15T13:54:02;98448.69;;;2.10
82297;BMP280;71899;51.992;8.648;2024-01-15T13:56:29;98450.00;;;2.17
82297;BMP280;71899;51.992;8.648;2024-01-15T13:59:06;98428.50;;;2.02
82297;BMP280;71899;51.992;8.648;2024-01-15T14:01:34;98417.28;;;2.03
82297;BMP280;71899;51.992;8.648;2024-01-15T14:04:00;98425.03;;;1.87
82297;BMP280;71899;51.992;8.648;2024-01-15T14:06:28;98417.91;;;1.77
82297;BMP280;71899;51.992;8.648;2024-01-15T14:09:06;98431.59;;;1.77
82297;BMP280;71899;51.992;8.648;2024-01-15T14:11:36;98440.91;;;1.80
82297;BMP280;71899;51.992;8.648;2024-01-15T14:14:11;98429.03;;;1.77
82297;BMP280;71899;51.992;8.648;2024-01-15T14:16:36;98434.66;;;1.84
82297;BMP280;71899;51.992;8.648;2024-01-15T14:19:02;98442.59;;;2.11
82297;BMP280;71899;51.992;8.648;2024-01-15T14:21:27;98447.53;;;1.99
82297;BMP280;71899;51.992;8.648;2024-01-15T14:23:53;98449.78;;;1.90
82297;BMP280;71899;51.992;8.648;2024-01-15T14:26:18;98441.66;;;1.66
82297;BMP280;71899;51.992;8.648;2024-01-15T14:28:43;98451.19;;;1.64
82297;BMP280;71899;51.992;8.648;2024-01-15T14:31:09;98446.56;;;1.71
82297;BMP280;71899;51.992;8.648;2024-01-15T14:33:34;98453.13;;;1.61
82297;BMP280;71899;51.992;8.648;2024-01-15T14:35:59;98462.03;;;1.71
82297;BMP280;71899;51.992;8.648;2024-01-15T14:38:25;98464.75;;;1.52
82297;BMP280;71899;51.992;8.648;2024-01-15T14:40:50;98467.22;;;1.54
82297;BMP280;71899;51.992;8.648;2024-01-15T14:43:15;98462.34;;;1.49
82297;BMP280;71899;51.992;8.648;2024-01-15T14:45:41;98462.84;;;1.56
82297;BMP280;71899;51.992;8.648;2024-01-15T14:48:06;98465.75;;;1.49